sensor_id;sensor_type;location;lat;lon;timestamp;temperature;humidity
40622;DHT22;26324;52.040;11.528;2023-11-21T00:01:34;8.60;87.80
40622;DHT22;26324;52.040;11.528;2023-11-21T00:04:01;8.60;87.80
40622;DHT22;26324;52.040;11.528;2023-11-21T00:06:29;8.60;88.00
40622;DHT22;26324;52.040;11.528;2023-11-21T00:08:57;8.60;88.10
40622;DHT22;26324;52.040;11.528;2023-11-21T00:11:24;8.70;87.70
40622;DHT22;26324;52.040;11.528;2023-11-21T00:13:52;8.70;87.80
40622;DHT22;26324;52.040;11.528;2023-11-21T00:16:20;8.70;87.70
40622;DHT22;26324;52.040;11.528;2023-11-21T00:18:49;8.70;87.70
40622;DHT22;26324;52.040;11.528;2023-11-21T00:21:16;8.70;87.70
40622;DHT22;26324;52.040;11.528;2023-11-21T00:23:43;8.70;87.60
40622;DHT22;26324;52.040;11.528;2023-11-21T00:26:11;8.60;87.80
40622;DHT22;26324;52.040;11.528;2023-11-21T00:28:39;8.60;87.90
40622;DHT22;26324;52.040;11.528;2023-11-21T00:31:07;8.60;87.90
40622;DHT22;26324;52.040;11.528;2023-11-21T00:33:34;8.60;88.10
40622;DHT22;26324;52.040;11.528;2023-11-21T00:36:02;8.60;88.00
40622;DHT22;26324;52.040;11.528;2023-11-21T00:38:29;8.70;88.00
40622;DHT22;26324;52.040;11.528;2023-11-21T00:40:58;8.70;87.60
40622;DHT22;26324;52.040;11.528;2023-11-21T00:43:26;8.60;88.00
40622;DHT22;26324;52.040;11.528;2023-11-21T00:45:53;8.70;88.00
40622;DHT22;26324;52.040;11.528;2023-11-21T00:48:20;8.60;88.30
40622;DHT22;26324;52.040;11.528;2023-11-21T00:50:48;8.60;88.40
40622;DHT22;26324;52.040;11.528;2023-11-21T00:53:16;8.70;88.20
40622;DHT22;26324;52.040;11.528;2023-11-21T00:55:44;8.60;88.40
40622;DHT22;26324;52.040;11.528;2023-11-21T00:58:12;8.60;88.30
40622;DHT22;26324;52.040;11.528;2023-11-21T01:00:39;8.60;88.40
40622;DHT22;26324;52.040;11.528;2023-11-21T01:03:07;8.50;88.50
40622;DHT22;26324;52.040;11.528;2023-11-21T01:05:35;8.50;88.70
40622;DHT22;26324;52.040;11.528;2023-11-21T01:08:03;8.50;88.80
40622;DHT22;26324;52.040;11.528;2023-11-21T01:10:30;8.50;88.70
40622;DHT22;26324;52.040;11.528;2023-11-21T01:12:57;8.50;88.70
40622;DHT22;26324;52.040;11.528;2023-11-21T01:15:25;8.50;88.50
40622;DHT22;26324;52.040;11.528;2023-11-21T01:17:53;8.50;88.50
40622;DHT22;26324;52.040;11.528;2023-11-21T01:20:20;8.60;88.60
40622;DHT22;26324;52.040;11.528;2023-11-21T01:22:48;8.60;88.80
40622;DHT22;26324;52.040;11.528;2023-11-21T01:25:18;8.60;88.60
40622;DHT22;26324;52.040;11.528;2023-11-21T01:27:46;8.50;88.60
40622;DHT22;26324;52.040;11.528;2023-11-21T01:30:13;8.60;88.90
40622;DHT22;26324;52.040;11.528;2023-11-21T01:32:41;8.50;88.70
40622;DHT22;26324;52.040;11.528;2023-11-21T01:35:09;8.60;88.60
40622;DHT22;26324;52.040;11.528;2023-11-21T01:37:38;8.50;88.80
40622;DHT22;26324;52.040;11.528;2023-11-21T01:40:06;8.60;88.90
40622;DHT22;26324;52.040;11.528;2023-11-21T01:42:37;8.50;88.90
40622;DHT22;26324;52.040;11.528;2023-11-21T01:45:06;8.50;89.00
40622;DHT22;26324;52.040;11.528;2023-11-21T01:47:34;8.40;89.20
40622;DHT22;26324;52.040;11.528;2023-11-21T01:50:03;8.40;89.50
40622;DHT22;26324;52.040;11.528;2023-11-21T01:52:35;8.50;89.40
40622;DHT22;26324;52.040;11.528;2023-11-21T01:55:05;8.50;89.00
40622;DHT22;26324;52.040;11.528;2023-11-21T01:57:33;8.50;89.20
40622;DHT22;26324;52.040;11.528;2023-11-21T02:00:02;8.40;89.40
40622;DHT22;26324;52.040;11.528;2023-11-21T02:02:48;8.50;89.60
40622;DHT22;26324;52.040;11.528;2023-11-21T02:05:17;8.50;89.30
40622;DHT22;26324;52.040;11.528;2023-11-21T02:07:49;8.50;89.30
40622;DHT22;26324;52.040;11.528;2023-11-21T02:10:16;8.50;89.40
40622;DHT22;26324;52.040;11.528;2023-11-21T02:12:44;8.40;89.50
40622;DHT22;26324;52.040;11.528;2023-11-21T02:15:13;8.40;89.80
40622;DHT22;26324;52.040;11.528;2023-11-21T02:17:54;8.40;89.60
40622;DHT22;26324;52.040;11.528;2023-11-21T02:20:22;8.30;90.00
40622;DHT22;26324;52.040;11.528;2023-11-21T02:22:54;8.30;90.10
40622;DHT22;26324;52.040;11.528;2023-11-21T02:25:27;8.30;90.10
40622;DHT22;26324;52.040;11.528;2023-11-21T02:27:56;8.30;90.10
40622;DHT22;26324;52.040;11.528;2023-11-21T02:30:24;8.40;90.00
40622;DHT22;26324;52.040;11.528;2023-11-21T02:33:01;8.30;89.90
40622;DHT22;26324;52.040;11.528;2023-11-21T02:35:30;8.30;90.00
40622;DHT22;26324;52.040;11.528;2023-11-21T02:37:59;8.30;90.10
40622;DHT22;26324;52.040;11.528;2023-11-21T02:40:26;8.30;90.20
40622;DHT22;26324;52.040;11.528;2023-11-21T02:42:54;8.20;90.60
40622;DHT22;26324;52.040;11.528;2023-11-21T02:45:22;8.30;90.40
40622;DHT22;26324;52.040;11.528;2023-11-21T02:47:51;8.30;90.60
40622;DHT22;26324;52.040;11.528;2023-11-21T02:50:20;8.30;90.40
40622;DHT22;26324;52.040;11.528;2023-11-21T02:52:51;8.30;90.40
40622;DHT22;26324;52.040;11.528;2023-11-21T02:55:20;8.20;90.50
40622;DHT22;26324;52.040;11.528;2023-11-21T02:57:47;8.20;90.60
40622;DHT22;26324;52.040;11.528;2023-11-21T03:00:15;8.20;90.80
40622;DHT22;26324;52.040;11.528;2023-11-21T03:02:43;8.20;90.90
40622;DHT22;26324;52.040;11.528;2023-11-21T03:05:11;8.30;90.80
40622;DHT22;26324;52.040;11.528;2023-11-21T03:07:39;8.20;90.80
40622;DHT22;26324;52.040;11.528;2023-11-21T03:10:08;8.20;90.70
40622;DHT22;26324;52.040;11.528;2023-11-21T03:12:39;8.20;90.80
40622;DHT22;26324;52.040;11.528;2023-11-21T03:15:07;8.20;91.00
40622;DHT22;26324;52.040;11.528;2023-11-21T03:17:35;8.20;91.00
40622;DHT22;26324;52.040;11.528;2023-11-21T03:20:04;8.20;91.00
40622;DHT22;26324;52.040;11.528;2023-11-21T03:22:32;8.30;91.00
40622;DHT22;26324;52.040;11.528;2023-11-21T03:25:00;8.30;90.90
40622;DHT22;26324;52.040;11.528;2023-11-21T03:27:28;8.30;90.80
40622;DHT22;26324;52.040;11.528;2023-11-21T03:29:55;8.30;90.70
40622;DHT22;26324;52.040;11.528;2023-11-21T03:32:22;8.40;90.80
40622;DHT22;26324;52.040;11.528;2023-11-21T03:34:58;8.40;90.40
40622;DHT22;26324;52.040;11.528;2023-11-21T03:37:26;8.40;90.60
40622;DHT22;26324;52.040;11.528;2023-11-21T03:39:57;8.30;90.50
40622;DHT22;26324;52.040;11.528;2023-11-21T03:42:24;8.40;90.70
40622;DHT22;26324;52.040;11.528;2023-11-21T03:44:54;8.30;90.70
40622;DHT22;26324;52.040;11.528;2023-11-21T03:47:21;8.30;91.00
40622;DHT22;26324;52.040;11.528;2023-11-21T03:49:49;8.30;91.00
40622;DHT22;26324;52.040;11.528;2023-11-21T03:52:17;8.40;91.10
40622;DHT22;26324;52.040;11.528;2023-11-21T03:54:45;8.50;90.80
40622;DHT22;26324;52.040;11.528;2023-11-21T03:57:12;8.40;90.90
40622;DHT22;26324;52.040;11.528;2023-11-21T03:59:40;8.50;90.80
40622;DHT22;26324;52.040;11.528;2023-11-21T04:02:08;8.40;91.00
40622;DHT22;26324;52.040;11.528;2023-11-21T04:04:36;8.40;91.00
40622;DHT22;26324;52.040;11.528;2023-11-21T04:07:04;8.50;90.60
40622;DHT22;26324;52.040;11.528;2023-11-21T04:09:32;8.40;90.80
40622;DHT22;26324;52.040;11.528;2023-11-21T04:11:59;8.40;90.90
40622;DHT22;26324;52.040;11.528;2023-11-21T04:14:27;8.40;91.00
40622;DHT22;26324;52.040;11.528;2023-11-21T04:16:54;8.50;90.90
40622;DHT22;26324;52.040;11.528;2023-11-21T04:19:22;8.60;90.90
40622;DHT22;26324;52.040;11.528;2023-11-21T04:21:49;8.70;90.60
40622;DHT22;26324;52.040;11.528;2023-11-21T04:24:17;8.70;90.30
40622;DHT22;26324;52.040;11.528;2023-11-21T04:26:44;8.80;90.10
40622;DHT22;26324;52.040;11.528;2023-11-21T04:29:12;8.80;90.00
40622;DHT22;26324;52.040;11.528;2023-11-21T04:31:39;8.90;89.90
40622;DHT22;26324;52.040;11.528;2023-11-21T04:34:07;8.90;89.90
40622;DHT22;26324;52.040;11.528;2023-11-21T04:36:35;8.90;89.80
40622;DHT22;26324;52.040;11.528;2023-11-21T04:39:02;8.90;89.90
40622;DHT22;26324;52.040;11.528;2023-11-21T04:41:30;8.90;89.80
40622;DHT22;26324;52.040;11.528;2023-11-21T04:43:59;9.00;89.70
40622;DHT22;26324;52.040;11.528;2023-11-21T04:46:28;9.00;89.50
40622;DHT22;26324;52.040;11.528;2023-11-21T04:48:55;9.00;89.60
40622;DHT22;26324;52.040;11.528;2023-11-21T04:51:23;9.00;89.50
40622;DHT22;26324;52.040;11.528;2023-11-21T04:53:50;9.00;89.50
40622;DHT22;26324;52.040;11.528;2023-11-21T04:56:17;9.00;89.60
40622;DHT22;26324;52.040;11.528;2023-11-21T04:58:45;8.90;89.70
40622;DHT22;26324;52.040;11.528;2023-11-21T05:01:13;9.00;89.70
40622;DHT22;26324;52.040;11.528;2023-11-21T05:03:41;8.90;89.80
40622;DHT22;26324;52.040;11.528;2023-11-21T05:06:12;8.90;89.80
40622;DHT22;26324;52.040;11.528;2023-11-21T05:08:39;8.90;89.90
40622;DHT22;26324;52.040;11.528;2023-11-21T05:11:06;8.90;89.80
40622;DHT22;26324;52.040;11.528;2023-11-21T05:13:37;8.90;89.80
40622;DHT22;26324;52.040;11.528;2023-11-21T05:16:06;8.90;89.90
40622;DHT22;26324;52.040;11.528;2023-11-21T05:18:34;8.80;89.80
40622;DHT22;26324;52.040;11.528;2023-11-21T05:21:02;8.80;90.40
40622;DHT22;26324;52.040;11.528;2023-11-21T05:23:29;8.80;90.40
40622;DHT22;26324;52.040;11.528;2023-11-21T05:25:56;8.70;90.40
40622;DHT22;26324;52.040;11.528;2023-11-21T05:28:24;8.80;90.20
40622;DHT22;26324;52.040;11.528;2023-11-21T05:30:51;8.70;90.00
40622;DHT22;26324;52.040;11.528;2023-11-21T05:33:41;8.60;90.30
40622;DHT22;26324;52.040;11.528;2023-11-21T05:36:08;8.60;90.20
40622;DHT22;26324;52.040;11.528;2023-11-21T05:38:37;8.60;90.20
40622;DHT22;26324;52.040;11.528;2023-11-21T05:41:04;8.50;90.10
40622;DHT22;26324;52.040;11.528;2023-11-21T05:43:32;8.50;90.50
40622;DHT22;26324;52.040;11.528;2023-11-21T05:46:02;8.60;90.50
40622;DHT22;26324;52.040;11.528;2023-11-21T05:48:30;8.60;90.10
40622;DHT22;26324;52.040;11.528;2023-11-21T05:50:57;8.60;89.90
40622;DHT22;26324;52.040;11.528;2023-11-21T05:53:24;8.50;89.80
40622;DHT22;26324;52.040;11.528;2023-11-21T05:55:52;8.50;90.10
40622;DHT22;26324;52.040;11.528;2023-11-21T05:58:19;8.40;90.20
40622;DHT22;26324;52.040;11.528;2023-11-21T06:00:47;8.40;90.10
40622;DHT22;26324;52.040;11.528;2023-11-21T06:03:14;8.30;90.10
40622;DHT22;26324;52.040;11.528;2023-11-21T06:05:41;8.30;90.00
40622;DHT22;26324;52.040;11.528;2023-11-21T06:08:09;8.30;89.90
40622;DHT22;26324;52.040;11.528;2023-11-21T06:10:36;8.30;89.80
40622;DHT22;26324;52.040;11.528;2023-11-21T06:13:03;8.20;89.80
40622;DHT22;26324;52.040;11.528;2023-11-21T06:15:31;8.10;89.90
40622;DHT22;26324;52.040;11.528;2023-11-21T06:17:58;8.10;89.90
40622;DHT22;26324;52.040;11.528;2023-11-21T06:20:27;8.00;89.70
40622;DHT22;26324;52.040;11.528;2023-11-21T06:22:54;7.90;89.50
40622;DHT22;26324;52.040;11.528;2023-11-21T06:25:22;7.90;89.80
40622;DHT22;26324;52.040;11.528;2023-11-21T06:27:50;7.80;90.00
40622;DHT22;26324;52.040;11.528;2023-11-21T06:30:19;7.80;90.00
40622;DHT22;26324;52.040;11.528;2023-11-21T06:32:47;7.80;90.00
40622;DHT22;26324;52.040;11.528;2023-11-21T06:35:15;7.80;89.90
40622;DHT22;26324;52.040;11.528;2023-11-21T06:37:44;7.80;90.00
40622;DHT22;26324;52.040;11.528;2023-11-21T06:40:16;7.80;90.10
40622;DHT22;26324;52.040;11.528;2023-11-21T06:42:45;7.80;89.90
40622;DHT22;26324;52.040;11.528;2023-11-21T06:45:15;7.80;89.90
40622;DHT22;26324;52.040;11.528;2023-11-21T06:47:43;7.80;90.00
40622;DHT22;26324;52.040;11.528;2023-11-21T06:50:11;7.80;90.10
40622;DHT22;26324;52.040;11.528;2023-11-21T06:52:38;7.80;89.80
40622;DHT22;26324;52.040;11.528;2023-11-21T06:55:06;7.80;90.00
40622;DHT22;26324;52.040;11.528;2023-11-21T06:57:36;7.80;90.00
40622;DHT22;26324;52.040;11.528;2023-11-21T07:00:04;7.80;89.50
40622;DHT22;26324;52.040;11.528;2023-11-21T07:02:32;7.70;89.40
40622;DHT22;26324;52.040;11.528;2023-11-21T07:04:59;7.60;89.60
40622;DHT22;26324;52.040;11.528;2023-11-21T07:07:27;7.50;89.80
40622;DHT22;26324;52.040;11.528;2023-11-21T07:09:55;7.50;90.30
40622;DHT22;26324;52.040;11.528;2023-11-21T07:12:22;7.60;90.00
40622;DHT22;26324;52.040;11.528;2023-11-21T07:14:51;7.60;89.80
40622;DHT22;26324;52.040;11.528;2023-11-21T07:17:18;7.60;89.60
40622;DHT22;26324;52.040;11.528;2023-11-21T07:19:46;7.50;89.90
40622;DHT22;26324;52.040;11.528;2023-11-21T07:22:13;7.50;89.70
40622;DHT22;26324;52.040;11.528;2023-11-21T07:24:43;7.50;89.90
40622;DHT22;26324;52.040;11.528;2023-11-21T07:27:10;7.50;89.90
40622;DHT22;26324;52.040;11.528;2023-11-21T07:29:37;7.50;90.00
40622;DHT22;26324;52.040;11.528;2023-11-21T07:32:06;7.50;90.10
40622;DHT22;26324;52.040;11.528;2023-11-21T07:34:36;7.50;90.00
40622;DHT22;26324;52.040;11.528;2023-11-21T07:37:04;7.50;90.10
40622;DHT22;26324;52.040;11.528;2023-11-21T07:39:31;7.50;89.90
40622;DHT22;26324;52.040;11.528;2023-11-21T07:41:59;7.50;89.90
40622;DHT22;26324;52.040;11.528;2023-11-21T07:44:26;7.40;89.60
40622;DHT22;26324;52.040;11.528;2023-11-21T07:46:54;7.40;89.90
40622;DHT22;26324;52.040;11.528;2023-11-21T07:49:24;7.40;89.70
40622;DHT22;26324;52.040;11.528;2023-11-21T07:51:53;7.40;89.70
40622;DHT22;26324;52.040;11.528;2023-11-21T07:54:21;7.40;89.80
40622;DHT22;26324;52.040;11.528;2023-11-21T07:56:48;7.40;89.70
40622;DHT22;26324;52.040;11.528;2023-11-21T07:59:15;7.40;89.70
40622;DHT22;26324;52.040;11.528;2023-11-21T08:01:44;7.30;89.60
40622;DHT22;26324;52.040;11.528;2023-11-21T08:04:12;7.30;89.20
40622;DHT22;26324;52.040;11.528;2023-11-21T08:06:40;7.30;89.10
40622;DHT22;26324;52.040;11.528;2023-11-21T08:09:09;7.30;89.30
40622;DHT22;26324;52.040;11.528;2023-11-21T08:11:37;7.20;89.50
40622;DHT22;26324;52.040;11.528;2023-11-21T08:14:06;7.10;89.40
40622;DHT22;26324;52.040;11.528;2023-11-21T08:16:33;7.10;89.70
40622;DHT22;26324;52.040;11.528;2023-11-21T08:19:01;7.10;89.80
40622;DHT22;26324;52.040;11.528;2023-11-21T08:21:29;7.20;89.70
40622;DHT22;26324;52.040;11.528;2023-11-21T08:23:57;7.10;89.60
40622;DHT22;26324;52.040;11.528;2023-11-21T08:26:24;7.10;88.80
40622;DHT22;26324;52.040;11.528;2023-11-21T08:28:52;7.10;89.00
40622;DHT22;26324;52.040;11.528;2023-11-21T08:31:26;7.10;88.90
40622;DHT22;26324;52.040;11.528;2023-11-21T08:33:54;7.20;88.70
40622;DHT22;26324;52.040;11.528;2023-11-21T08:36:25;7.20;88.40
40622;DHT22;26324;52.040;11.528;2023-11-21T08:38:53;7.20;88.60
40622;DHT22;26324;52.040;11.528;2023-11-21T08:41:20;7.20;88.30
40622;DHT22;26324;52.040;11.528;2023-11-21T08:43:51;7.20;88.00
40622;DHT22;26324;52.040;11.528;2023-11-21T08:46:19;7.20;88.20
40622;DHT22;26324;52.040;11.528;2023-11-21T08:48:47;7.30;88.00
40622;DHT22;26324;52.040;11.528;2023-11-21T08:51:15;7.30;87.80
40622;DHT22;26324;52.040;11.528;2023-11-21T08:53:43;7.30;87.80
40622;DHT22;26324;52.040;11.528;2023-11-21T08:56:14;7.30;87.80
40622;DHT22;26324;52.040;11.528;2023-11-21T08:58:41;7.30;87.60
40622;DHT22;26324;52.040;11.528;2023-11-21T09:01:09;7.40;87.40
40622;DHT22;26324;52.040;11.528;2023-11-21T09:03:36;7.20;87.10
40622;DHT22;26324;52.040;11.528;2023-11-21T09:06:04;7.40;87.30
40622;DHT22;26324;52.040;11.528;2023-11-21T09:08:32;7.30;86.70
40622;DHT22;26324;52.040;11.528;2023-11-21T09:10:59;7.20;85.60
40622;DHT22;26324;52.040;11.528;2023-11-21T09:13:27;7.10;86.00
40622;DHT22;26324;52.040;11.528;2023-11-21T09:15:54;7.10;85.70
40622;DHT22;26324;52.040;11.528;2023-11-21T09:18:22;7.10;85.10
40622;DHT22;26324;52.040;11.528;2023-11-21T09:20:49;7.10;85.00
40622;DHT22;26324;52.040;11.528;2023-11-21T09:23:16;7.10;84.60
40622;DHT22;26324;52.040;11.528;2023-11-21T09:25:44;7.10;84.90
40622;DHT22;26324;52.040;11.528;2023-11-21T09:28:13;7.20;85.50
40622;DHT22;26324;52.040;11.528;2023-11-21T09:30:41;7.40;85.20
40622;DHT22;26324;52.040;11.528;2023-11-21T09:33:09;7.40;84.10
40622;DHT22;26324;52.040;11.528;2023-11-21T09:35:38;7.50;84.20
40622;DHT22;26324;52.040;11.528;2023-11-21T09:38:05;7.50;83.70
40622;DHT22;26324;52.040;11.528;2023-11-21T09:40:37;7.60;84.00
40622;DHT22;26324;52.040;11.528;2023-11-21T09:43:08;7.70;84.00
40622;DHT22;26324;52.040;11.528;2023-11-21T09:45:45;7.70;82.50
40622;DHT22;26324;52.040;11.528;2023-11-21T09:48:14;7.70;82.60
40622;DHT22;26324;52.040;11.528;2023-11-21T09:50:42;7.70;83.10
40622;DHT22;26324;52.040;11.528;2023-11-21T09:55:43;7.50;82.80
40622;DHT22;26324;52.040;11.528;2023-11-21T09:58:11;7.50;83.20
40622;DHT22;26324;52.040;11.528;2023-11-21T10:00:40;7.50;82.60
40622;DHT22;26324;52.040;11.528;2023-11-21T10:03:09;7.50;83.80
40622;DHT22;26324;52.040;11.528;2023-11-21T10:05:37;7.60;82.50
40622;DHT22;26324;52.040;11.528;2023-11-21T10:08:07;7.60;82.00
40622;DHT22;26324;52.040;11.528;2023-11-21T10:10:38;7.60;82.10
40622;DHT22;26324;52.040;11.528;2023-11-21T10:13:11;7.60;83.10
40622;DHT22;26324;52.040;11.528;2023-11-21T10:15:40;7.50;82.80
40622;DHT22;26324;52.040;11.528;2023-11-21T10:18:08;7.60;82.20
40622;DHT22;26324;52.040;11.528;2023-11-21T10:20:36;7.60;82.20
40622;DHT22;26324;52.040;11.528;2023-11-21T10:23:06;7.50;82.20
40622;DHT22;26324;52.040;11.528;2023-11-21T10:25:38;7.50;81.40
40622;DHT22;26324;52.040;11.528;2023-11-21T10:28:05;7.50;81.00
40622;DHT22;26324;52.040;11.528;2023-11-21T10:30:38;7.40;81.00
40622;DHT22;26324;52.040;11.528;2023-11-21T10:33:07;7.40;80.80
40622;DHT22;26324;52.040;11.528;2023-11-21T10:35:45;7.40;81.50
40622;DHT22;26324;52.040;11.528;2023-11-21T10:38:22;7.50;80.80
40622;DHT22;26324;52.040;11.528;2023-11-21T10:40:51;7.60;80.80
40622;DHT22;26324;52.040;11.528;2023-11-21T10:43:19;7.60;80.50
40622;DHT22;26324;52.040;11.528;2023-11-21T10:45:47;7.70;80.20
40622;DHT22;26324;52.040;11.528;2023-11-21T10:48:15;7.80;79.50
40622;DHT22;26324;52.040;11.528;2023-11-21T10:50:45;7.90;79.00
40622;DHT22;26324;52.040;11.528;2023-11-21T10:53:12;7.90;79.40
40622;DHT22;26324;52.040;11.528;2023-11-21T10:55:40;8.10;78.30
40622;DHT22;26324;52.040;11.528;2023-11-21T10:58:10;8.30;77.80
40622;DHT22;26324;52.040;11.528;2023-11-21T11:00:40;8.60;77.80
40622;DHT22;26324;52.040;11.528;2023-11-21T11:03:08;8.70;78.00
40622;DHT22;26324;52.040;11.528;2023-11-21T11:05:46;8.70;76.90
40622;DHT22;26324;52.040;11.528;2023-11-21T11:08:21;8.60;76.20
40622;DHT22;26324;52.040;11.528;2023-11-21T11:10:55;8.40;75.30
40622;DHT22;26324;52.040;11.528;2023-11-21T11:13:23;8.00;77.20
40622;DHT22;26324;52.040;11.528;2023-11-21T11:15:58;7.90;77.80
40622;DHT22;26324;52.040;11.528;2023-11-21T11:18:29;7.70;77.70
40622;DHT22;26324;52.040;11.528;2023-11-21T11:21:11;7.60;77.90
40622;DHT22;26324;52.040;11.528;2023-11-21T11:26:59;7.60;79.50
40622;DHT22;26324;52.040;11.528;2023-11-21T11:29:39;7.70;79.90
40622;DHT22;26324;52.040;11.528;2023-11-21T11:32:34;7.70;79.60
40622;DHT22;26324;52.040;11.528;2023-11-21T11:35:10;7.60;79.30
40622;DHT22;26324;52.040;11.528;2023-11-21T11:37:44;7.60;79.10
40622;DHT22;26324;52.040;11.528;2023-11-21T11:40:11;7.50;79.70
40622;DHT22;26324;52.040;11.528;2023-11-21T11:42:39;7.30;80.30
40622;DHT22;26324;52.040;11.528;2023-11-21T11:45:19;7.30;80.70
40622;DHT22;26324;52.040;11.528;2023-11-21T11:47:47;7.30;81.30
40622;DHT22;26324;52.040;11.528;2023-11-21T11:50:15;7.30;81.20
40622;DHT22;26324;52.040;11.528;2023-11-21T11:52:46;7.40;81.10
40622;DHT22;26324;52.040;11.528;2023-11-21T11:55:14;7.50;79.70
40622;DHT22;26324;52.040;11.528;2023-11-21T11:57:46;7.50;80.10
40622;DHT22;26324;52.040;11.528;2023-11-21T12:00:21;7.60;79.50
40622;DHT22;26324;52.040;11.528;2023-11-21T12:02:59;7.50;79.00
40622;DHT22;26324;52.040;11.528;2023-11-21T12:05:34;7.50;79.60
40622;DHT22;26324;52.040;11.528;2023-11-21T12:08:12;7.40;79.50
40622;DHT22;26324;52.040;11.528;2023-11-21T12:10:40;7.30;79.90
40622;DHT22;26324;52.040;11.528;2023-11-21T12:13:08;7.20;80.80
40622;DHT22;26324;52.040;11.528;2023-11-21T12:15:37;7.30;80.60
40622;DHT22;26324;52.040;11.528;2023-11-21T12:18:06;7.30;79.20
40622;DHT22;26324;52.040;11.528;2023-11-21T12:20:34;7.30;78.90
40622;DHT22;26324;52.040;11.528;2023-11-21T12:23:07;7.20;78.40
40622;DHT22;26324;52.040;11.528;2023-11-21T12:25:36;7.20;78.90
40622;DHT22;26324;52.040;11.528;2023-11-21T12:28:04;7.20;78.90
40622;DHT22;26324;52.040;11.528;2023-11-21T12:30:36;7.10;79.00
40622;DHT22;26324;52.040;11.528;2023-11-21T12:33:05;7.10;79.00
40622;DHT22;26324;52.040;11.528;2023-11-21T12:35:36;7.10;79.90
40622;DHT22;26324;52.040;11.528;2023-11-21T12:38:04;7.00;79.90
40622;DHT22;26324;52.040;11.528;2023-11-21T12:40:32;7.10;80.10
40622;DHT22;26324;52.040;11.528;2023-11-21T12:43:00;7.10;80.00
40622;DHT22;26324;52.040;11.528;2023-11-21T12:45:31;7.10;80.50
40622;DHT22;26324;52.040;11.528;2023-11-21T12:48:05;7.10;79.90
40622;DHT22;26324;52.040;11.528;2023-11-21T12:50:39;7.10;79.60
40622;DHT22;26324;52.040;11.528;2023-11-21T12:53:09;7.10;79.70
40622;DHT22;26324;52.040;11.528;2023-11-21T12:55:37;7.00;79.60
40622;DHT22;26324;52.040;11.528;2023-11-21T12:58:07;7.00;79.80
40622;DHT22;26324;52.040;11.528;2023-11-21T13:00:47;7.00;80.00
40622;DHT22;26324;52.040;11.528;2023-11-21T13:03:16;7.00;79.70
40622;DHT22;26324;52.040;11.528;2023-11-21T13:05:48;7.00;79.90
40622;DHT22;26324;52.040;11.528;2023-11-21T13:08:21;7.00;79.60
40622;DHT22;26324;52.040;11.528;2023-11-21T13:10:54;7.00;80.10
40622;DHT22;26324;52.040;11.528;2023-11-21T13:13:24;7.00;80.60
40622;DHT22;26324;52.040;11.528;2023-11-21T13:15:55;6.90;80.70
40622;DHT22;26324;52.040;11.528;2023-11-21T13:18:24;6.90;77.50
40622;DHT22;26324;52.040;11.528;2023-11-21T13:20:59;6.60;76.90
40622;DHT22;26324;52.040;11.528;2023-11-21T13:23:28;6.50;77.70
40622;DHT22;26324;52.040;11.528;2023-11-21T13:25:56;6.50;77.70
40622;DHT22;26324;52.040;11.528;2023-11-21T13:28:33;6.50;77.70
40622;DHT22;26324;52.040;11.528;2023-11-21T13:31:02;6.50;77.00
40622;DHT22;26324;52.040;11.528;2023-11-21T13:33:37;6.50;76.70
40622;DHT22;26324;52.040;11.528;2023-11-21T13:36:06;6.50;77.00
40622;DHT22;26324;52.040;11.528;2023-11-21T13:38:36;6.50;76.00
40622;DHT22;26324;52.040;11.528;2023-11-21T13:41:05;6.50;76.30
40622;DHT22;26324;52.040;11.528;2023-11-21T13:43:34;6.60;75.50
40622;DHT22;26324;52.040;11.528;2023-11-21T13:46:04;6.60;75.60
40622;DHT22;26324;52.040;11.528;2023-11-21T13:48:40;6.70;75.30
40622;DHT22;26324;52.040;11.528;2023-11-21T13:51:10;6.90;75.00
40622;DHT22;26324;52.040;11.528;2023-11-21T13:53:45;7.00;73.40
40622;DHT22;26324;52.040;11.528;2023-11-21T13:56:18;7.00;72.40
40622;DHT22;26324;52.040;11.528;2023-11-21T13:58:52;7.00;72.60
40622;DHT22;26324;52.040;11.528;2023-11-21T14:01:26;7.00;72.50
40622;DHT22;26324;52.040;11.528;2023-11-21T14:04:01;7.10;72.30
40622;DHT22;26324;52.040;11.528;2023-11-21T14:06:36;7.00;72.90
40622;DHT22;26324;52.040;11.528;2023-11-21T14:09:23;7.10;72.90
40622;DHT22;26324;52.040;11.528;2023-11-21T14:12:00;7.10;72.60
40622;DHT22;26324;52.040;11.528;2023-11-21T14:14:30;7.10;72.20
40622;DHT22;26324;52.040;11.528;2023-11-21T14:16:57;7.00;72.90
40622;DHT22;26324;52.040;11.528;2023-11-21T14:19:26;7.00;72.50
40622;DHT22;26324;52.040;11.528;2023-11-21T14:21:59;6.90;73.20
40622;DHT22;26324;52.040;11.528;2023-11-21T14:24:27;6.80;74.10
40622;DHT22;26324;52.040;11.528;2023-11-21T14:26:56;6.70;74.50
40622;DHT22;26324;52.040;11.528;2023-11-21T14:29:23;6.60;74.60
40622;DHT22;26324;52.040;11.528;2023-11-21T14:31:51;6.50;75.20
40622;DHT22;26324;52.040;11.528;2023-11-21T14:34:23;6.50;75.30
40622;DHT22;26324;52.040;11.528;2023-11-21T14:36:51;6.50;75.80
40622;DHT22;26324;52.040;11.528;2023-11-21T14:39:18;6.40;76.80
40622;DHT22;26324;52.040;11.528;2023-11-21T14:41:55;6.30;77.10
40622;DHT22;26324;52.040;11.528;2023-11-21T14:44:23;6.30;76.80
40622;DHT22;26324;52.040;11.528;2023-11-21T14:46:53;6.30;77.10
40622;DHT22;26324;52.040;11.528;2023-11-21T14:49:25;6.30;76.70
40622;DHT22;26324;52.040;11.528;2023-11-21T14:51:55;6.40;76.90
40622;DHT22;26324;52.040;11.528;2023-11-21T14:54:31;6.30;77.10
40622;DHT22;26324;52.040;11.528;2023-11-21T14:57:13;6.30;77.20
40622;DHT22;26324;52.040;11.528;2023-11-21T14:59:47;6.30;77.40
40622;DHT22;26324;52.040;11.528;2023-11-21T15:02:18;6.20;77.70
40622;DHT22;26324;52.040;11.528;2023-11-21T15:04:50;6.30;78.10
40622;DHT22;26324;52.040;11.528;2023-11-21T15:07:26;6.20;78.00
40622;DHT22;26324;52.040;11.528;2023-11-21T15:09:54;6.10;78.00
40622;DHT22;26324;52.040;11.528;2023-11-21T15:12:22;6.10;78.40
40622;DHT22;26324;52.040;11.528;2023-11-21T15:14:53;6.00;78.30
40622;DHT22;26324;52.040;11.528;2023-11-21T15:17:22;6.00;78.40
40622;DHT22;26324;52.040;11.528;2023-11-21T15:19:54;6.00;77.90
40622;DHT22;26324;52.040;11.528;2023-11-21T15:22:21;6.00;78.30
40622;DHT22;26324;52.040;11.528;2023-11-21T15:24:49;6.00;78.50
40622;DHT22;26324;52.040;11.528;2023-11-21T15:27:17;6.00;78.70
40622;DHT22;26324;52.040;11.528;2023-11-21T15:29:44;5.90;78.90
40622;DHT22;26324;52.040;11.528;2023-11-21T15:32:12;6.00;79.40
40622;DHT22;26324;52.040;11.528;2023-11-21T15:34:40;5.90;79.90
40622;DHT22;26324;52.040;11.528;2023-11-21T15:37:08;5.90;78.80
40622;DHT22;26324;52.040;11.528;2023-11-21T15:39:41;5.90;78.40
40622;DHT22;26324;52.040;11.528;2023-11-21T15:42:09;5.80;76.30
40622;DHT22;26324;52.040;11.528;2023-11-21T15:44:37;5.80;76.30
40622;DHT22;26324;52.040;11.528;2023-11-21T15:47:05;5.80;76.20
40622;DHT22;26324;52.040;11.528;2023-11-21T15:49:35;5.70;76.60